createdAt,value
2022-10-01T00:00:32.127Z,5.16
2022-10-01T00:03:33.723Z,5.16
2022-10-01T00:06:35.113Z,5.09
2022-10-01T00:09:36.483Z,5.10
2022-10-01T00:12:38.286Z,5.17
2022-10-01T00:15:40.530Z,5.20
2022-10-01T00:18:42.408Z,5.25
2022-10-01T00:21:43.926Z,5.30
2022-10-01T00:24:47.219Z,5.34
2022-10-01T00:27:49.260Z,5.34
2022-10-01T00:30:50.699Z,5.38
2022-10-01T00:33:52.786Z,5.42
2022-10-01T00:36:54.713Z,5.43
2022-10-01T00:39:56.100Z,5.46
2022-10-01T00:42:57.450Z,5.40
2022-10-01T00:46:00.185Z,5.42
2022-10-01T00:49:02.652Z,5.47
2022-10-01T00:52:05.496Z,5.39
2022-10-01T00:55:08.692Z,5.40
2022-10-01T00:58:10.408Z,5.42
2022-10-01T01:01:11.836Z,5.43
2022-10-01T01:04:19.127Z,5.45
2022-10-01T01:07:20.451Z,5.46
2022-10-01T01:10:28.098Z,5.47
2022-10-01T01:13:35.601Z,5.56
2022-10-01T01:16:39.082Z,5.62
2022-10-01T01:19:43.509Z,5.79
2022-10-01T01:22:48.381Z,5.82
2022-10-01T01:26:08.033Z,5.86
2022-10-01T01:29:11.357Z,5.95
2022-10-01T01:32:14.953Z,5.98
2022-10-01T01:35:31.102Z,6.07
2022-10-01T01:38:38.918Z,6.09
2022-10-01T01:41:41.299Z,5.89
2022-10-01T01:44:44.081Z,5.93
2022-10-01T01:47:45.492Z,6.09
2022-10-01T01:50:53.070Z,6.24
2022-10-01T01:53:54.413Z,6.27
2022-10-01T01:56:56.322Z,6.44
2022-10-01T01:59:57.707Z,6.45
2022-10-01T02:02:59.200Z,6.48
2022-10-01T02:06:03.615Z,6.48
2022-10-01T02:09:15.566Z,6.65
2022-10-01T02:12:38.416Z,6.77
2022-10-01T02:15:39.795Z,6.92
2022-10-01T02:18:53.213Z,7.03
2022-10-01T02:22:01.537Z,7.56
2022-10-01T02:25:03.482Z,8.06
2022-10-01T02:28:06.758Z,8.23
2022-10-01T02:31:08.233Z,8.21
2022-10-01T02:34:12.497Z,8.14
2022-10-01T02:37:14.463Z,8.23
2022-10-01T02:40:16.427Z,8.23
2022-10-01T02:43:18.789Z,8.16
2022-10-01T02:46:21.936Z,8.20
2022-10-01T02:49:26.366Z,8.22
2022-10-01T02:52:42.962Z,8.39
2022-10-01T02:55:44.338Z,8.41
2022-10-01T02:58:45.807Z,8.39
2022-10-01T03:01:47.257Z,8.27
2022-10-01T03:04:48.661Z,8.36
2022-10-01T03:07:50.046Z,8.37
2022-10-01T03:10:51.384Z,8.36
2022-10-01T03:13:53.790Z,8.32
2022-10-01T03:16:55.143Z,8.32
2022-10-01T03:19:56.499Z,8.31
2022-10-01T03:22:57.937Z,8.39
2022-10-01T03:25:59.286Z,8.44
2022-10-01T03:29:00.658Z,8.38
2022-10-01T03:32:01.975Z,8.50
2022-10-01T03:35:03.417Z,8.55
2022-10-01T03:38:04.902Z,8.52
2022-10-01T03:41:06.302Z,8.53
2022-10-01T03:44:07.661Z,8.51
2022-10-01T03:47:09.809Z,8.52
2022-10-01T03:50:11.204Z,8.56
2022-10-01T03:53:12.701Z,8.57
2022-10-01T03:56:14.501Z,8.62
2022-10-01T03:59:15.913Z,8.71
2022-10-01T04:02:17.352Z,8.78
2022-10-01T04:05:18.797Z,8.97
2022-10-01T04:08:24.190Z,9.01
2022-10-01T04:11:25.962Z,9.02
2022-10-01T04:14:27.301Z,9.03
2022-10-01T04:17:28.930Z,9.06
2022-10-01T04:20:30.962Z,9.07
2022-10-01T04:23:32.315Z,9.26
2022-10-01T04:26:33.655Z,9.18
2022-10-01T04:29:39.990Z,9.12
2022-10-01T04:32:41.613Z,9.14
2022-10-01T04:35:43.534Z,9.26
2022-10-01T04:38:44.909Z,9.25
2022-10-01T04:41:46.264Z,9.28
2022-10-01T04:44:47.653Z,9.31
2022-10-01T04:47:52.595Z,9.30
2022-10-01T04:50:53.926Z,9.26
2022-10-01T04:53:55.776Z,9.31
2022-10-01T04:56:58.332Z,9.27
2022-10-01T04:59:59.826Z,9.34
2022-10-01T05:03:01.193Z,9.27
2022-10-01T05:06:02.568Z,9.22
2022-10-01T05:09:03.986Z,9.10
2022-10-01T05:12:06.287Z,8.95
2022-10-01T05:15:07.899Z,8.81
2022-10-01T05:18:09.292Z,8.74
2022-10-01T05:21:11.614Z,8.61
2022-10-01T05:24:12.976Z,8.52
2022-10-01T05:27:14.390Z,8.47
2022-10-01T05:30:24.213Z,8.41
2022-10-01T05:33:26.771Z,8.28
2022-10-01T05:36:28.170Z,8.30
2022-10-01T05:39:29.882Z,8.43
2022-10-01T05:42:31.230Z,8.40
2022-10-01T05:45:32.675Z,8.40
2022-10-01T05:48:37.702Z,8.30
2022-10-01T05:51:39.313Z,8.36
2022-10-01T05:54:41.140Z,8.36
2022-10-01T05:57:42.486Z,8.34
2022-10-01T06:00:43.923Z,8.34
2022-10-01T06:03:45.375Z,8.32
2022-10-01T06:06:46.897Z,8.35
2022-10-01T06:09:48.673Z,8.27
2022-10-01T06:12:50.064Z,8.31
2022-10-01T06:15:51.727Z,8.28
2022-10-01T06:18:57.446Z,8.33
2022-10-01T06:21:58.829Z,8.29
2022-10-01T06:25:00.668Z,8.35
2022-10-01T06:28:02.077Z,8.28
2022-10-01T06:31:03.506Z,8.34
2022-10-01T06:34:04.876Z,8.37
2022-10-01T06:37:06.230Z,8.41
2022-10-01T06:40:07.745Z,8.42
2022-10-01T06:43:09.249Z,8.44
2022-10-01T06:46:11.169Z,8.38
2022-10-01T06:49:13.804Z,8.38
2022-10-01T06:52:33.845Z,8.42
2022-10-01T06:55:35.330Z,8.40
2022-10-01T06:58:37.411Z,8.42
2022-10-01T07:01:39.121Z,8.39
2022-10-01T07:04:41.255Z,8.34
2022-10-01T07:07:43.425Z,8.31
2022-10-01T07:10:45.538Z,8.35
2022-10-01T07:13:49.065Z,8.41
2022-10-01T07:16:53.743Z,8.45
2022-10-01T07:19:55.240Z,8.41
2022-10-01T07:22:57.124Z,8.38
2022-10-01T07:25:58.965Z,8.34
2022-10-01T07:29:00.327Z,8.41
2022-10-01T07:32:01.800Z,8.40
2022-10-01T07:35:03.584Z,8.40
2022-10-01T07:38:08.101Z,8.44
2022-10-01T07:41:09.585Z,8.42
2022-10-01T07:44:13.933Z,8.31
2022-10-01T07:47:15.269Z,8.33
2022-10-01T07:50:16.733Z,8.36
2022-10-01T07:53:18.413Z,8.31
2022-10-01T07:56:19.744Z,8.26
2022-10-01T07:59:21.851Z,8.29
2022-10-01T08:02:23.254Z,8.32
2022-10-01T08:05:25.577Z,8.31
2022-10-01T08:08:26.939Z,8.38
2022-10-01T08:11:28.275Z,8.40
2022-10-01T08:14:30.356Z,8.42
2022-10-01T08:17:31.746Z,8.43
2022-10-01T08:20:33.070Z,8.44
2022-10-01T08:23:34.553Z,8.45
2022-10-01T08:26:35.890Z,8.45
2022-10-01T08:29:37.271Z,8.50
2022-10-01T08:32:38.630Z,8.51
2022-10-01T08:35:40.354Z,8.54
2022-10-01T08:38:44.394Z,8.61
2022-10-01T08:41:53.502Z,8.70
2022-10-01T08:44:54.862Z,8.63
2022-10-01T08:47:58.669Z,8.59
2022-10-01T08:51:03.904Z,8.59
2022-10-01T08:54:10.317Z,8.62
2022-10-01T08:57:12.815Z,8.61
2022-10-01T09:00:14.564Z,8.58
2022-10-01T09:03:15.997Z,8.57
2022-10-01T09:06:25.377Z,8.57
2022-10-01T09:09:36.185Z,8.59
2022-10-01T09:12:43.357Z,8.59
2022-10-01T09:15:44.690Z,8.69
2022-10-01T09:19:07.536Z,8.71
2022-10-01T09:22:17.075Z,8.72
2022-10-01T09:25:22.570Z,8.70
2022-10-01T09:28:24.898Z,8.69
2022-10-01T09:31:27.316Z,8.71
2022-10-01T09:34:30.685Z,8.72
2022-10-01T09:37:40.899Z,8.72
2022-10-01T09:40:53.444Z,8.80
2022-10-01T09:43:54.799Z,8.90
2022-10-01T09:46:56.119Z,9.01
2022-10-01T09:49:58.008Z,9.10
2022-10-01T09:53:00.224Z,9.17
2022-10-01T09:56:19.310Z,9.22
2022-10-01T09:59:22.535Z,9.19
2022-10-01T10:02:25.720Z,9.13
2022-10-01T10:05:27.714Z,9.19
2022-10-01T10:08:33.753Z,9.14
2022-10-01T10:11:35.602Z,9.18
2022-10-01T10:14:37.951Z,9.19
2022-10-01T10:17:41.164Z,9.22
2022-10-01T10:20:44.069Z,9.24
2022-10-01T10:23:49.336Z,9.27
2022-10-01T10:26:56.586Z,9.31
2022-10-01T10:30:01.681Z,9.35
2022-10-01T10:33:04.140Z,9.46
2022-10-01T10:36:05.673Z,9.52
2022-10-01T10:39:07.215Z,9.57
2022-10-01T10:42:08.635Z,9.68
2022-10-01T10:45:14.650Z,9.78
2022-10-01T10:48:17.003Z,9.81
2022-10-01T10:51:18.484Z,9.83
2022-10-01T10:54:20.855Z,9.82
2022-10-01T10:57:29.162Z,9.86
2022-10-01T11:00:30.496Z,9.91
2022-10-01T11:03:32.064Z,9.97
2022-10-01T11:06:33.699Z,9.97
2022-10-01T11:09:47.586Z,9.90
2022-10-01T11:12:56.407Z,9.92
2022-10-01T11:16:13.639Z,9.87
2022-10-01T11:19:33.995Z,9.88
2022-10-01T11:22:35.320Z,9.88
2022-10-01T11:25:41.450Z,9.91
2022-10-01T11:28:45.123Z,9.96
2022-10-01T11:31:49.673Z,10.01
2022-10-01T11:34:51.119Z,10.12
2022-10-01T11:37:59.850Z,10.25
2022-10-01T11:41:03.948Z,10.32
2022-10-01T11:44:05.577Z,10.37
2022-10-01T11:47:06.866Z,10.45
2022-10-01T11:50:13.185Z,10.55
2022-10-01T11:53:17.608Z,10.68
2022-10-01T11:56:50.933Z,10.72
2022-10-01T11:59:56.749Z,10.82
2022-10-01T12:02:58.832Z,10.91
2022-10-01T12:06:00.176Z,11.06
2022-10-01T12:09:06.362Z,11.10
2022-10-01T12:12:09.102Z,11.18
2022-10-01T12:15:13.697Z,11.21
2022-10-01T12:18:17.874Z,11.26
2022-10-01T12:21:23.768Z,11.41
2022-10-01T12:24:27.470Z,11.32
2022-10-01T12:27:31.301Z,11.39
2022-10-01T12:30:35.810Z,11.34
2022-10-01T12:33:37.131Z,11.42
2022-10-01T12:36:41.490Z,11.61
2022-10-01T12:40:10.248Z,11.91
2022-10-01T12:43:30.377Z,12.58
2022-10-01T12:46:31.823Z,12.54
2022-10-01T12:49:46.010Z,12.80
2022-10-01T12:52:50.349Z,12.71
2022-10-01T12:55:56.939Z,12.57
2022-10-01T12:59:04.196Z,12.58
2022-10-01T13:02:07.520Z,12.34
2022-10-01T13:05:19.918Z,12.36
2022-10-01T13:08:38.143Z,12.41
2022-10-01T13:11:48.574Z,12.36
2022-10-01T13:14:50.105Z,12.08
2022-10-01T13:18:11.688Z,12.02
2022-10-01T13:21:19.148Z,12.03
2022-10-01T13:24:32.840Z,11.95
2022-10-01T13:27:42.350Z,12.01
2022-10-01T13:30:53.464Z,12.00
2022-10-01T13:33:55.819Z,12.07
2022-10-01T13:36:57.219Z,12.10
2022-10-01T13:39:58.774Z,12.14
2022-10-01T13:43:03.597Z,12.13
2022-10-01T13:46:06.078Z,12.24
2022-10-01T13:49:08.137Z,12.22
2022-10-01T13:52:19.211Z,12.23
2022-10-01T13:55:27.880Z,12.16
2022-10-01T13:58:29.531Z,12.18
2022-10-01T14:01:39.587Z,12.11
2022-10-01T14:04:41.868Z,12.12
2022-10-01T14:07:43.294Z,12.14
2022-10-01T14:11:06.014Z,12.13
2022-10-01T14:14:52.494Z,12.12
2022-10-01T14:17:53.928Z,12.12
2022-10-01T14:21:10.638Z,12.07
2022-10-01T14:24:14.969Z,11.99
2022-10-01T14:27:35.171Z,11.95
2022-10-01T14:30:41.352Z,11.95
2022-10-01T14:33:42.667Z,11.95
2022-10-01T14:36:51.018Z,11.89
2022-10-01T14:40:02.218Z,11.85
2022-10-01T14:43:04.649Z,11.83
2022-10-01T14:46:06.389Z,11.86
2022-10-01T14:49:17.120Z,11.95
2022-10-01T14:52:20.509Z,11.88
2022-10-01T14:55:22.552Z,11.88
2022-10-01T14:58:31.023Z,11.85
2022-10-01T15:01:32.439Z,11.78
2022-10-01T15:04:33.863Z,11.86
2022-10-01T15:07:36.621Z,11.88
2022-10-01T15:10:39.678Z,11.87
2022-10-01T15:13:41.823Z,11.93
2022-10-01T15:16:43.202Z,11.97
2022-10-01T15:19:44.850Z,12.01
2022-10-01T15:22:47.091Z,12.00
2022-10-01T15:25:48.507Z,12.01
2022-10-01T15:28:50.000Z,12.09
2022-10-01T15:31:51.626Z,12.11
2022-10-01T15:34:53.853Z,12.12
2022-10-01T15:37:55.329Z,12.14
2022-10-01T15:41:14.036Z,12.20
2022-10-01T15:44:49.944Z,12.21
2022-10-01T15:47:52.160Z,12.17
2022-10-01T15:51:00.673Z,12.17
2022-10-01T15:54:03.490Z,12.15
2022-10-01T15:57:06.082Z,12.16
2022-10-01T16:00:15.529Z,12.13
2022-10-01T16:03:17.502Z,12.09
2022-10-01T16:06:23.906Z,12.06
2022-10-01T16:09:27.632Z,12.02
2022-10-01T16:12:28.988Z,12.09
2022-10-01T16:15:30.482Z,12.07
2022-10-01T16:18:34.633Z,11.97
2022-10-01T16:21:39.750Z,11.97
2022-10-01T16:24:41.839Z,11.95
2022-10-01T16:27:47.106Z,11.88
2022-10-01T16:30:49.970Z,11.82
2022-10-01T16:33:51.415Z,11.78
2022-10-01T16:36:52.791Z,11.81
2022-10-01T16:39:54.174Z,11.79
2022-10-01T16:42:55.740Z,11.86
2022-10-01T16:45:59.002Z,11.80
2022-10-01T16:49:00.396Z,11.81
2022-10-01T16:52:02.448Z,11.93
2022-10-01T16:55:04.102Z,11.88
2022-10-01T16:58:05.934Z,11.80
2022-10-01T17:01:08.638Z,11.73
2022-10-01T17:04:11.322Z,11.67
2022-10-01T17:07:12.667Z,11.65
2022-10-01T17:10:14.213Z,11.60
2022-10-01T17:13:15.727Z,11.51
2022-10-01T17:16:18.723Z,11.46
2022-10-01T17:19:22.034Z,11.44
2022-10-01T17:22:23.396Z,11.40
2022-10-01T17:25:31.912Z,11.36
2022-10-01T17:28:33.284Z,11.33
2022-10-01T17:31:35.520Z,11.26
2022-10-01T17:34:37.331Z,11.30
2022-10-01T17:37:38.658Z,11.27
2022-10-01T17:40:41.357Z,11.22
2022-10-01T17:43:42.713Z,11.16
2022-10-01T17:46:44.103Z,11.11
2022-10-01T17:49:45.441Z,11.18
2022-10-01T17:52:46.933Z,11.16
2022-10-01T17:55:48.386Z,11.15
2022-10-01T17:58:49.808Z,11.19
2022-10-01T18:01:52.682Z,11.22
2022-10-01T18:04:54.083Z,11.44
2022-10-01T18:07:55.452Z,11.57
2022-10-01T18:11:09.874Z,11.63
2022-10-01T18:14:11.259Z,11.69
2022-10-01T18:17:12.581Z,11.74
2022-10-01T18:20:13.921Z,11.97
2022-10-01T18:23:15.271Z,12.03
2022-10-01T18:26:16.731Z,11.96
2022-10-01T18:29:19.293Z,12.17
2022-10-01T18:32:21.512Z,12.35
2022-10-01T18:35:28.047Z,12.42
2022-10-01T18:38:30.133Z,12.25
2022-10-01T18:41:37.845Z,12.39
2022-10-01T18:44:39.268Z,12.42
2022-10-01T18:47:52.725Z,12.33
2022-10-01T18:51:00.431Z,12.24
2022-10-01T18:54:04.756Z,12.28
2022-10-01T18:57:12.143Z,12.21
2022-10-01T19:00:23.259Z,12.23
2022-10-01T19:03:48.018Z,12.24
2022-10-01T19:06:57.879Z,12.45
2022-10-01T19:10:03.867Z,12.55
2022-10-01T19:13:13.726Z,12.47
2022-10-01T19:16:21.039Z,12.40
2022-10-01T19:19:35.331Z,12.44
2022-10-01T19:22:55.375Z,12.39
2022-10-01T19:26:14.253Z,12.43
2022-10-01T19:29:15.576Z,12.48
2022-10-01T19:32:17.874Z,12.40
2022-10-01T19:35:20.037Z,12.46
2022-10-01T19:38:26.549Z,12.49
2022-10-01T19:41:29.889Z,12.34
2022-10-01T19:44:35.733Z,12.43
2022-10-01T19:48:08.767Z,12.41
2022-10-01T19:51:12.477Z,12.37
2022-10-01T19:54:16.425Z,12.32
2022-10-01T19:57:22.527Z,12.43
2022-10-01T20:00:23.865Z,12.35
2022-10-01T20:03:31.270Z,12.30
2022-10-01T20:06:33.958Z,12.26
2022-10-01T20:09:35.416Z,12.34
2022-10-01T20:12:42.094Z,12.37
2022-10-01T20:15:52.613Z,12.46
2022-10-01T20:19:00.229Z,12.43
2022-10-01T20:22:04.409Z,12.41
2022-10-01T20:25:23.990Z,12.45
2022-10-01T20:28:27.839Z,12.48
2022-10-01T20:31:44.252Z,12.51
2022-10-01T20:34:55.676Z,12.51
2022-10-01T20:37:58.308Z,12.36
2022-10-01T20:41:00.669Z,12.40
2022-10-01T20:44:02.021Z,12.40
2022-10-01T20:47:03.959Z,12.44
2022-10-01T20:50:09.306Z,12.39
2022-10-01T20:53:18.037Z,12.46
2022-10-01T20:56:21.653Z,12.36
2022-10-01T20:59:27.689Z,12.35
2022-10-01T21:02:46.609Z,12.35
2022-10-01T21:05:53.314Z,12.35
2022-10-01T21:08:59.648Z,12.36
2022-10-01T21:12:10.280Z,12.42
2022-10-01T21:15:12.693Z,12.48
2022-10-01T21:18:35.716Z,12.49
2022-10-01T21:21:37.089Z,12.51
2022-10-01T21:24:49.166Z,12.52
2022-10-01T21:27:54.826Z,12.47
2022-10-01T21:31:07.609Z,12.46
2022-10-01T21:34:13.118Z,12.46
2022-10-01T21:37:15.693Z,12.60
2022-10-01T21:40:37.996Z,12.58
2022-10-01T21:43:46.156Z,12.44
2022-10-01T21:46:47.475Z,12.40
2022-10-01T21:50:09.071Z,12.61
2022-10-01T21:53:28.822Z,12.45
2022-10-01T21:56:46.246Z,12.38
2022-10-01T21:59:59.728Z,12.40
2022-10-01T22:03:19.910Z,12.39
2022-10-01T22:06:24.007Z,12.45
2022-10-01T22:09:33.002Z,12.58
2022-10-01T22:12:34.860Z,12.65
2022-10-01T22:15:37.165Z,12.59
2022-10-01T22:18:46.053Z,12.52
2022-10-01T22:21:48.437Z,12.46
2022-10-01T22:24:50.687Z,12.58
2022-10-01T22:27:53.718Z,12.61
2022-10-01T22:30:55.443Z,12.54
2022-10-01T22:34:01.147Z,12.61
2022-10-01T22:37:04.589Z,12.55
2022-10-01T22:40:14.099Z,12.46
2022-10-01T22:43:15.489Z,12.48
2022-10-01T22:46:21.998Z,12.43
2022-10-01T22:49:26.312Z,12.51
2022-10-01T22:52:31.196Z,12.43
2022-10-01T22:55:40.344Z,12.25
2022-10-01T22:58:52.311Z,12.11
2022-10-01T23:02:03.335Z,12.02
2022-10-01T23:05:11.151Z,11.93
2022-10-01T23:08:31.309Z,11.88
2022-10-01T23:11:43.112Z,11.86
2022-10-01T23:14:50.630Z,11.89
2022-10-01T23:17:54.147Z,11.97
2022-10-01T23:21:08.327Z,12.14
2022-10-01T23:24:36.107Z,12.19
2022-10-01T23:27:56.822Z,12.16
2022-10-01T23:31:18.516Z,12.25
2022-10-01T23:34:24.086Z,12.36
2022-10-01T23:37:44.437Z,12.35
2022-10-01T23:40:46.209Z,12.53
2022-10-01T23:43:48.250Z,12.70
2022-10-01T23:46:50.285Z,12.58
2022-10-01T23:49:55.137Z,12.43
2022-10-01T23:53:15.633Z,12.34
2022-10-01T23:56:37.564Z,12.25
2022-10-01T23:59:41.463Z,12.38
